sensor_id;sensor_type;location;lat;lon;timestamp;temperature;humidity
11961;DHT22;6040;49.358;11.140;2022-12-18T00:02:14;-11.00;99.90
11961;DHT22;6040;49.358;11.140;2022-12-18T00:04:41;-11.00;99.90
11961;DHT22;6040;49.358;11.140;2022-12-18T00:07:08;-11.00;99.90
11961;DHT22;6040;49.358;11.140;2022-12-18T00:09:35;-11.00;99.90
11961;DHT22;6040;49.358;11.140;2022-12-18T00:12:02;-11.10;99.90
11961;DHT22;6040;49.358;11.140;2022-12-18T00:14:30;-11.10;99.90
11961;DHT22;6040;49.358;11.140;2022-12-18T00:16:57;-11.10;99.90
11961;DHT22;6040;49.358;11.140;2022-12-18T00:19:26;-11.10;99.90
11961;DHT22;6040;49.358;11.140;2022-12-18T00:21:53;-11.10;99.90
11961;DHT22;6040;49.358;11.140;2022-12-18T00:24:20;-11.10;99.90
11961;DHT22;6040;49.358;11.140;2022-12-18T00:26:47;-11.20;99.90
11961;DHT22;6040;49.358;11.140;2022-12-18T00:29:17;-11.10;99.90
11961;DHT22;6040;49.358;11.140;2022-12-18T00:31:46;-11.10;99.90
11961;DHT22;6040;49.358;11.140;2022-12-18T00:34:13;-11.10;99.90
11961;DHT22;6040;49.358;11.140;2022-12-18T00:36:40;-11.10;99.90
11961;DHT22;6040;49.358;11.140;2022-12-18T00:39:08;-11.10;99.90
11961;DHT22;6040;49.358;11.140;2022-12-18T00:41:37;-11.20;99.90
11961;DHT22;6040;49.358;11.140;2022-12-18T00:44:36;-11.20;99.90
11961;DHT22;6040;49.358;11.140;2022-12-18T00:47:04;-11.20;99.90
11961;DHT22;6040;49.358;11.140;2022-12-18T00:49:31;-11.20;99.90
11961;DHT22;6040;49.358;11.140;2022-12-18T00:51:58;-11.20;99.90
11961;DHT22;6040;49.358;11.140;2022-12-18T00:54:25;-11.20;99.90
11961;DHT22;6040;49.358;11.140;2022-12-18T00:56:52;-9.70;99.90
11961;DHT22;6040;49.358;11.140;2022-12-18T00:59:20;-11.20;99.90
11961;DHT22;6040;49.358;11.140;2022-12-18T01:01:47;-11.20;99.90
11961;DHT22;6040;49.358;11.140;2022-12-18T01:04:17;-11.30;99.90
11961;DHT22;6040;49.358;11.140;2022-12-18T01:06:44;-11.30;99.90
11961;DHT22;6040;49.358;11.140;2022-12-18T01:09:11;-11.40;99.90
11961;DHT22;6040;49.358;11.140;2022-12-18T01:11:37;-11.40;99.90
11961;DHT22;6040;49.358;11.140;2022-12-18T01:14:04;-11.50;99.90
11961;DHT22;6040;49.358;11.140;2022-12-18T01:16:31;-11.50;99.90
11961;DHT22;6040;49.358;11.140;2022-12-18T01:18:58;-11.50;99.90
11961;DHT22;6040;49.358;11.140;2022-12-18T01:21:26;-11.50;99.90
11961;DHT22;6040;49.358;11.140;2022-12-18T01:23:54;-11.50;99.90
11961;DHT22;6040;49.358;11.140;2022-12-18T01:26:22;-11.50;99.90
11961;DHT22;6040;49.358;11.140;2022-12-18T01:28:49;-11.40;99.90
11961;DHT22;6040;49.358;11.140;2022-12-18T01:31:18;-11.30;99.90
11961;DHT22;6040;49.358;11.140;2022-12-18T01:33:49;-11.30;99.90
11961;DHT22;6040;49.358;11.140;2022-12-18T01:36:19;-11.20;99.90
11961;DHT22;6040;49.358;11.140;2022-12-18T01:38:49;-11.10;99.90
11961;DHT22;6040;49.358;11.140;2022-12-18T01:41:22;-11.00;99.90
11961;DHT22;6040;49.358;11.140;2022-12-18T01:43:51;-10.90;99.90
11961;DHT22;6040;49.358;11.140;2022-12-18T01:46:20;-10.80;99.90
11961;DHT22;6040;49.358;11.140;2022-12-18T01:48:49;-10.80;99.90
11961;DHT22;6040;49.358;11.140;2022-12-18T01:51:17;-10.80;99.90
11961;DHT22;6040;49.358;11.140;2022-12-18T01:53:46;-10.80;99.90
11961;DHT22;6040;49.358;11.140;2022-12-18T01:56:15;-10.80;99.90
11961;DHT22;6040;49.358;11.140;2022-12-18T01:58:50;-10.80;99.90
11961;DHT22;6040;49.358;11.140;2022-12-18T02:01:21;-10.80;99.90
11961;DHT22;6040;49.358;11.140;2022-12-18T02:03:48;-10.80;99.90
11961;DHT22;6040;49.358;11.140;2022-12-18T02:06:16;-10.80;99.90
11961;DHT22;6040;49.358;11.140;2022-12-18T02:08:57;-10.70;99.90
11961;DHT22;6040;49.358;11.140;2022-12-18T02:11:34;-10.60;99.90
11961;DHT22;6040;49.358;11.140;2022-12-18T02:14:12;-10.60;99.90
11961;DHT22;6040;49.358;11.140;2022-12-18T02:16:45;-10.50;99.90
11961;DHT22;6040;49.358;11.140;2022-12-18T02:19:27;-10.50;99.90
11961;DHT22;6040;49.358;11.140;2022-12-18T02:22:00;-10.40;99.90
11961;DHT22;6040;49.358;11.140;2022-12-18T02:24:37;-10.30;99.90
11961;DHT22;6040;49.358;11.140;2022-12-18T02:27:09;-10.20;99.90
11961;DHT22;6040;49.358;11.140;2022-12-18T02:29:40;-10.20;99.90
11961;DHT22;6040;49.358;11.140;2022-12-18T02:32:14;-10.10;99.90
11961;DHT22;6040;49.358;11.140;2022-12-18T02:34:43;-10.00;99.90
11961;DHT22;6040;49.358;11.140;2022-12-18T02:37:13;-10.00;99.90
11961;DHT22;6040;49.358;11.140;2022-12-18T02:39:43;-9.90;99.90
11961;DHT22;6040;49.358;11.140;2022-12-18T02:42:12;-9.80;99.90
11961;DHT22;6040;49.358;11.140;2022-12-18T02:44:43;-9.80;99.90
11961;DHT22;6040;49.358;11.140;2022-12-18T02:47:12;-9.70;99.90
11961;DHT22;6040;49.358;11.140;2022-12-18T02:49:44;-9.70;99.90
11961;DHT22;6040;49.358;11.140;2022-12-18T02:52:25;-9.70;99.90
11961;DHT22;6040;49.358;11.140;2022-12-18T02:55:07;-9.60;99.90
11961;DHT22;6040;49.358;11.140;2022-12-18T02:57:45;-9.60;99.90
11961;DHT22;6040;49.358;11.140;2022-12-18T03:00:15;-9.50;99.90
11961;DHT22;6040;49.358;11.140;2022-12-18T03:02:47;-9.40;99.90
11961;DHT22;6040;49.358;11.140;2022-12-18T03:05:17;-9.40;99.90
11961;DHT22;6040;49.358;11.140;2022-12-18T03:07:55;-9.30;99.90
11961;DHT22;6040;49.358;11.140;2022-12-18T03:10:26;-9.20;99.90
11961;DHT22;6040;49.358;11.140;2022-12-18T03:13:02;-9.10;99.90
11961;DHT22;6040;49.358;11.140;2022-12-18T03:15:31;-9.10;99.90
11961;DHT22;6040;49.358;11.140;2022-12-18T03:18:06;-9.00;99.90
11961;DHT22;6040;49.358;11.140;2022-12-18T03:20:39;-8.90;99.90
11961;DHT22;6040;49.358;11.140;2022-12-18T03:23:11;-8.90;99.90
11961;DHT22;6040;49.358;11.140;2022-12-18T03:25:44;-8.80;99.90
11961;DHT22;6040;49.358;11.140;2022-12-18T03:28:15;-8.70;99.90
11961;DHT22;6040;49.358;11.140;2022-12-18T03:30:45;-8.80;99.90
11961;DHT22;6040;49.358;11.140;2022-12-18T03:33:16;-8.70;99.90
11961;DHT22;6040;49.358;11.140;2022-12-18T03:35:45;-8.70;99.90
11961;DHT22;6040;49.358;11.140;2022-12-18T03:38:12;-8.60;99.90
11961;DHT22;6040;49.358;11.140;2022-12-18T03:40:48;-8.60;99.90
11961;DHT22;6040;49.358;11.140;2022-12-18T03:43:23;-8.60;99.90
11961;DHT22;6040;49.358;11.140;2022-12-18T03:45:53;-8.50;99.90
11961;DHT22;6040;49.358;11.140;2022-12-18T03:48:25;-8.50;99.90
11961;DHT22;6040;49.358;11.140;2022-12-18T03:50:57;-8.40;99.90
11961;DHT22;6040;49.358;11.140;2022-12-18T03:53:32;-8.40;99.90
11961;DHT22;6040;49.358;11.140;2022-12-18T03:56:04;-8.20;99.90
11961;DHT22;6040;49.358;11.140;2022-12-18T03:58:34;-8.10;99.90
11961;DHT22;6040;49.358;11.140;2022-12-18T04:01:08;-7.90;99.90
11961;DHT22;6040;49.358;11.140;2022-12-18T04:03:37;-7.90;99.90
11961;DHT22;6040;49.358;11.140;2022-12-18T04:06:06;-7.80;99.90
11961;DHT22;6040;49.358;11.140;2022-12-18T04:08:34;-7.70;99.90
11961;DHT22;6040;49.358;11.140;2022-12-18T04:11:02;-7.60;99.90
11961;DHT22;6040;49.358;11.140;2022-12-18T04:13:33;-7.50;99.90
11961;DHT22;6040;49.358;11.140;2022-12-18T04:16:00;-7.40;99.90
11961;DHT22;6040;49.358;11.140;2022-12-18T04:18:27;-7.40;99.90
11961;DHT22;6040;49.358;11.140;2022-12-18T04:20:54;-7.40;99.90
11961;DHT22;6040;49.358;11.140;2022-12-18T04:23:21;-7.40;99.90
11961;DHT22;6040;49.358;11.140;2022-12-18T04:25:48;-7.30;99.90
11961;DHT22;6040;49.358;11.140;2022-12-18T04:28:15;-7.10;99.90
11961;DHT22;6040;49.358;11.140;2022-12-18T04:30:43;-7.00;99.90
11961;DHT22;6040;49.358;11.140;2022-12-18T04:33:10;-6.90;99.90
11961;DHT22;6040;49.358;11.140;2022-12-18T04:35:38;-6.90;99.90
11961;DHT22;6040;49.358;11.140;2022-12-18T04:38:08;-6.80;99.90
11961;DHT22;6040;49.358;11.140;2022-12-18T04:40:35;-6.80;99.90
11961;DHT22;6040;49.358;11.140;2022-12-18T04:43:02;-6.70;99.90
11961;DHT22;6040;49.358;11.140;2022-12-18T04:45:29;-6.60;99.90
11961;DHT22;6040;49.358;11.140;2022-12-18T04:47:58;-6.60;99.90
11961;DHT22;6040;49.358;11.140;2022-12-18T04:50:25;-6.50;99.90
11961;DHT22;6040;49.358;11.140;2022-12-18T04:52:55;-6.50;99.90
11961;DHT22;6040;49.358;11.140;2022-12-18T04:55:25;-6.50;99.90
11961;DHT22;6040;49.358;11.140;2022-12-18T04:57:51;-6.40;99.90
11961;DHT22;6040;49.358;11.140;2022-12-18T05:00:18;-6.30;99.90
11961;DHT22;6040;49.358;11.140;2022-12-18T05:02:45;-6.20;99.90
11961;DHT22;6040;49.358;11.140;2022-12-18T05:05:14;-6.20;99.90
11961;DHT22;6040;49.358;11.140;2022-12-18T05:07:41;-6.10;99.90
11961;DHT22;6040;49.358;11.140;2022-12-18T05:10:08;-6.10;99.90
11961;DHT22;6040;49.358;11.140;2022-12-18T05:12:35;-6.10;99.90
11961;DHT22;6040;49.358;11.140;2022-12-18T05:15:22;-6.00;99.90
11961;DHT22;6040;49.358;11.140;2022-12-18T05:17:52;-5.90;99.90
11961;DHT22;6040;49.358;11.140;2022-12-18T05:20:20;-5.80;99.90
11961;DHT22;6040;49.358;11.140;2022-12-18T05:22:47;-5.70;99.90
11961;DHT22;6040;49.358;11.140;2022-12-18T05:25:14;-5.60;99.90
11961;DHT22;6040;49.358;11.140;2022-12-18T05:27:41;-5.60;99.90
11961;DHT22;6040;49.358;11.140;2022-12-18T05:30:09;-5.60;99.90
11961;DHT22;6040;49.358;11.140;2022-12-18T05:32:36;-5.50;99.90
11961;DHT22;6040;49.358;11.140;2022-12-18T05:35:05;-5.50;99.90
11961;DHT22;6040;49.358;11.140;2022-12-18T05:37:33;-5.50;99.90
11961;DHT22;6040;49.358;11.140;2022-12-18T05:40:01;-5.40;99.90
11961;DHT22;6040;49.358;11.140;2022-12-18T05:42:28;-5.40;99.90
11961;DHT22;6040;49.358;11.140;2022-12-18T05:44:54;-5.30;99.90
11961;DHT22;6040;49.358;11.140;2022-12-18T05:47:21;-5.30;99.90
11961;DHT22;6040;49.358;11.140;2022-12-18T05:49:51;-5.30;99.90
11961;DHT22;6040;49.358;11.140;2022-12-18T05:52:18;-4.60;99.90
11961;DHT22;6040;49.358;11.140;2022-12-18T05:54:46;-5.20;99.90
11961;DHT22;6040;49.358;11.140;2022-12-18T05:57:13;-5.20;99.90
11961;DHT22;6040;49.358;11.140;2022-12-18T05:59:40;-5.20;99.90
11961;DHT22;6040;49.358;11.140;2022-12-18T06:02:07;-5.20;99.90
11961;DHT22;6040;49.358;11.140;2022-12-18T06:04:33;-5.20;99.90
11961;DHT22;6040;49.358;11.140;2022-12-18T06:07:03;-5.20;99.90
11961;DHT22;6040;49.358;11.140;2022-12-18T06:09:30;-5.20;99.90
11961;DHT22;6040;49.358;11.140;2022-12-18T06:11:59;-5.20;99.90
11961;DHT22;6040;49.358;11.140;2022-12-18T06:14:25;-5.10;99.90
11961;DHT22;6040;49.358;11.140;2022-12-18T06:16:52;-5.20;99.90
11961;DHT22;6040;49.358;11.140;2022-12-18T06:19:19;-5.10;99.90
11961;DHT22;6040;49.358;11.140;2022-12-18T06:21:47;-5.00;99.90
11961;DHT22;6040;49.358;11.140;2022-12-18T06:24:14;-5.00;99.90
11961;DHT22;6040;49.358;11.140;2022-12-18T06:26:41;-5.10;99.90
11961;DHT22;6040;49.358;11.140;2022-12-18T06:29:11;-5.00;99.90
11961;DHT22;6040;49.358;11.140;2022-12-18T06:31:41;-4.90;99.90
11961;DHT22;6040;49.358;11.140;2022-12-18T06:34:08;-4.90;99.90
11961;DHT22;6040;49.358;11.140;2022-12-18T06:36:38;-4.90;99.90
11961;DHT22;6040;49.358;11.140;2022-12-18T06:39:07;-4.90;99.90
11961;DHT22;6040;49.358;11.140;2022-12-18T06:41:34;-4.90;99.90
11961;DHT22;6040;49.358;11.140;2022-12-18T06:44:03;-4.90;99.90
11961;DHT22;6040;49.358;11.140;2022-12-18T06:46:32;-4.90;99.90
11961;DHT22;6040;49.358;11.140;2022-12-18T06:48:59;-4.80;99.90
11961;DHT22;6040;49.358;11.140;2022-12-18T06:51:26;-4.80;99.90
11961;DHT22;6040;49.358;11.140;2022-12-18T06:53:53;-4.80;99.90
11961;DHT22;6040;49.358;11.140;2022-12-18T06:56:19;-4.70;99.90
11961;DHT22;6040;49.358;11.140;2022-12-18T06:58:46;-4.70;99.90
11961;DHT22;6040;49.358;11.140;2022-12-18T07:01:13;-4.70;99.90
11961;DHT22;6040;49.358;11.140;2022-12-18T07:03:42;-4.70;99.90
11961;DHT22;6040;49.358;11.140;2022-12-18T07:06:13;-4.70;99.90
11961;DHT22;6040;49.358;11.140;2022-12-18T07:08:41;-4.70;99.90
11961;DHT22;6040;49.358;11.140;2022-12-18T07:11:08;-4.70;99.90
11961;DHT22;6040;49.358;11.140;2022-12-18T07:13:34;-4.80;99.90
11961;DHT22;6040;49.358;11.140;2022-12-18T07:16:06;-4.70;99.90
11961;DHT22;6040;49.358;11.140;2022-12-18T07:18:34;-4.70;99.90
11961;DHT22;6040;49.358;11.140;2022-12-18T07:21:05;-4.70;99.90
11961;DHT22;6040;49.358;11.140;2022-12-18T07:23:32;-4.70;99.90
11961;DHT22;6040;49.358;11.140;2022-12-18T07:26:01;-4.70;99.90
11961;DHT22;6040;49.358;11.140;2022-12-18T07:28:29;-4.70;99.90
11961;DHT22;6040;49.358;11.140;2022-12-18T07:30:55;-3.50;99.90
11961;DHT22;6040;49.358;11.140;2022-12-18T07:33:22;-4.70;99.90
11961;DHT22;6040;49.358;11.140;2022-12-18T07:35:49;-4.70;99.90
11961;DHT22;6040;49.358;11.140;2022-12-18T07:38:17;-4.60;99.90
11961;DHT22;6040;49.358;11.140;2022-12-18T07:40:44;-4.60;99.90
11961;DHT22;6040;49.358;11.140;2022-12-18T07:43:11;-4.60;99.90
11961;DHT22;6040;49.358;11.140;2022-12-18T07:45:37;-4.60;99.90
11961;DHT22;6040;49.358;11.140;2022-12-18T07:48:05;-4.50;99.90
11961;DHT22;6040;49.358;11.140;2022-12-18T07:50:31;-4.50;99.90
11961;DHT22;6040;49.358;11.140;2022-12-18T07:52:58;-4.40;99.90
11961;DHT22;6040;49.358;11.140;2022-12-18T07:55:30;-4.40;99.90
11961;DHT22;6040;49.358;11.140;2022-12-18T07:58:00;-4.40;99.90
11961;DHT22;6040;49.358;11.140;2022-12-18T08:00:27;-4.40;99.90
11961;DHT22;6040;49.358;11.140;2022-12-18T08:02:54;-4.40;99.90
11961;DHT22;6040;49.358;11.140;2022-12-18T08:05:20;-3.60;99.90
11961;DHT22;6040;49.358;11.140;2022-12-18T08:07:47;-4.30;99.90
11961;DHT22;6040;49.358;11.140;2022-12-18T08:10:15;-4.30;99.90
11961;DHT22;6040;49.358;11.140;2022-12-18T08:12:43;-4.30;99.90
11961;DHT22;6040;49.358;11.140;2022-12-18T08:15:10;-4.30;99.90
11961;DHT22;6040;49.358;11.140;2022-12-18T08:17:37;-4.30;99.90
11961;DHT22;6040;49.358;11.140;2022-12-18T08:20:04;-4.30;99.90
11961;DHT22;6040;49.358;11.140;2022-12-18T08:22:33;-4.30;99.90
11961;DHT22;6040;49.358;11.140;2022-12-18T08:25:00;-4.30;99.90
11961;DHT22;6040;49.358;11.140;2022-12-18T08:27:27;-4.30;99.90
11961;DHT22;6040;49.358;11.140;2022-12-18T08:29:55;-4.20;99.90
11961;DHT22;6040;49.358;11.140;2022-12-18T08:32:22;-4.10;99.90
11961;DHT22;6040;49.358;11.140;2022-12-18T08:34:49;-4.10;99.90
11961;DHT22;6040;49.358;11.140;2022-12-18T08:37:16;-4.10;99.90
11961;DHT22;6040;49.358;11.140;2022-12-18T08:39:42;-5.10;99.90
11961;DHT22;6040;49.358;11.140;2022-12-18T08:42:09;-4.00;99.90
11961;DHT22;6040;49.358;11.140;2022-12-18T08:44:55;-3.90;99.90
11961;DHT22;6040;49.358;11.140;2022-12-18T08:47:22;-3.80;99.90
11961;DHT22;6040;49.358;11.140;2022-12-18T08:49:49;-3.80;99.90
11961;DHT22;6040;49.358;11.140;2022-12-18T08:52:15;-3.80;99.90
11961;DHT22;6040;49.358;11.140;2022-12-18T08:54:42;-3.80;99.90
11961;DHT22;6040;49.358;11.140;2022-12-18T08:57:09;-3.90;99.90
11961;DHT22;6040;49.358;11.140;2022-12-18T08:59:36;-3.90;99.90
11961;DHT22;6040;49.358;11.140;2022-12-18T09:02:04;-3.80;99.90
11961;DHT22;6040;49.358;11.140;2022-12-18T09:04:31;-3.70;99.90
11961;DHT22;6040;49.358;11.140;2022-12-18T09:06:58;-3.70;99.90
11961;DHT22;6040;49.358;11.140;2022-12-18T09:09:24;-3.70;99.90
11961;DHT22;6040;49.358;11.140;2022-12-18T09:11:51;-3.60;99.90
11961;DHT22;6040;49.358;11.140;2022-12-18T09:14:18;-3.70;99.90
11961;DHT22;6040;49.358;11.140;2022-12-18T09:16:45;-3.60;99.90
11961;DHT22;6040;49.358;11.140;2022-12-18T09:19:13;-3.60;99.90
11961;DHT22;6040;49.358;11.140;2022-12-18T09:21:40;-3.60;99.90
11961;DHT22;6040;49.358;11.140;2022-12-18T09:24:12;-3.70;99.90
11961;DHT22;6040;49.358;11.140;2022-12-18T09:26:39;-3.80;99.90
11961;DHT22;6040;49.358;11.140;2022-12-18T09:29:06;-3.90;99.90
11961;DHT22;6040;49.358;11.140;2022-12-18T09:31:34;-4.00;99.90
11961;DHT22;6040;49.358;11.140;2022-12-18T09:34:01;-4.00;99.90
11961;DHT22;6040;49.358;11.140;2022-12-18T09:36:29;-4.00;99.90
11961;DHT22;6040;49.358;11.140;2022-12-18T09:38:56;-3.90;99.90
11961;DHT22;6040;49.358;11.140;2022-12-18T09:41:39;-3.80;99.90
11961;DHT22;6040;49.358;11.140;2022-12-18T09:44:14;-3.80;99.90
11961;DHT22;6040;49.358;11.140;2022-12-18T09:46:46;-3.70;99.90
11961;DHT22;6040;49.358;11.140;2022-12-18T09:49:17;-3.40;99.90
11961;DHT22;6040;49.358;11.140;2022-12-18T09:51:51;-3.40;99.90
11961;DHT22;6040;49.358;11.140;2022-12-18T09:54:22;-3.30;99.90
11961;DHT22;6040;49.358;11.140;2022-12-18T09:56:50;-3.20;99.90
11961;DHT22;6040;49.358;11.140;2022-12-18T09:59:21;-3.20;99.90
11961;DHT22;6040;49.358;11.140;2022-12-18T10:01:50;-3.20;99.90
11961;DHT22;6040;49.358;11.140;2022-12-18T10:04:16;-3.20;99.90
11961;DHT22;6040;49.358;11.140;2022-12-18T10:06:50;-3.10;99.90
11961;DHT22;6040;49.358;11.140;2022-12-18T10:09:27;-3.10;99.90
11961;DHT22;6040;49.358;11.140;2022-12-18T10:12:02;-3.00;99.90
11961;DHT22;6040;49.358;11.140;2022-12-18T10:14:37;-3.10;99.90
11961;DHT22;6040;49.358;11.140;2022-12-18T10:17:16;-3.00;99.90
11961;DHT22;6040;49.358;11.140;2022-12-18T10:19:48;-2.90;99.90
11961;DHT22;6040;49.358;11.140;2022-12-18T10:22:26;-2.90;99.90
11961;DHT22;6040;49.358;11.140;2022-12-18T10:25:02;-2.80;99.90
11961;DHT22;6040;49.358;11.140;2022-12-18T10:27:30;-2.70;99.90
11961;DHT22;6040;49.358;11.140;2022-12-18T10:29:57;-2.60;99.90
11961;DHT22;6040;49.358;11.140;2022-12-18T10:32:27;-2.60;99.90
11961;DHT22;6040;49.358;11.140;2022-12-18T10:34:57;-2.50;99.90
11961;DHT22;6040;49.358;11.140;2022-12-18T10:37:27;-2.50;99.90
11961;DHT22;6040;49.358;11.140;2022-12-18T10:40:10;-2.30;99.90
11961;DHT22;6040;49.358;11.140;2022-12-18T10:42:38;-2.10;99.90
11961;DHT22;6040;49.358;11.140;2022-12-18T10:45:13;-2.40;99.90
11961;DHT22;6040;49.358;11.140;2022-12-18T10:47:45;-2.50;99.90
11961;DHT22;6040;49.358;11.140;2022-12-18T10:50:24;-2.70;99.90
11961;DHT22;6040;49.358;11.140;2022-12-18T10:52:56;-2.70;99.90
11961;DHT22;6040;49.358;11.140;2022-12-18T10:55:25;-2.70;99.90
11961;DHT22;6040;49.358;11.140;2022-12-18T10:58:01;-2.70;99.90
11961;DHT22;6040;49.358;11.140;2022-12-18T11:00:39;-2.60;99.90
11961;DHT22;6040;49.358;11.140;2022-12-18T11:03:31;-2.40;99.90
11961;DHT22;6040;49.358;11.140;2022-12-18T11:06:07;-2.70;99.90
11961;DHT22;6040;49.358;11.140;2022-12-18T11:08:35;-2.80;99.90
11961;DHT22;6040;49.358;11.140;2022-12-18T11:11:06;-2.90;99.90
11961;DHT22;6040;49.358;11.140;2022-12-18T11:13:34;-2.80;99.90
11961;DHT22;6040;49.358;11.140;2022-12-18T11:16:01;-2.90;99.90
11961;DHT22;6040;49.358;11.140;2022-12-18T11:18:29;-2.80;99.90
11961;DHT22;6040;49.358;11.140;2022-12-18T11:20:59;-2.80;99.90
11961;DHT22;6040;49.358;11.140;2022-12-18T11:23:27;-2.90;99.90
11961;DHT22;6040;49.358;11.140;2022-12-18T11:25:57;-2.90;99.90
11961;DHT22;6040;49.358;11.140;2022-12-18T11:28:36;-2.90;99.90
11961;DHT22;6040;49.358;11.140;2022-12-18T11:31:17;-2.90;99.90
11961;DHT22;6040;49.358;11.140;2022-12-18T11:33:48;-2.90;99.90
11961;DHT22;6040;49.358;11.140;2022-12-18T11:36:19;-2.70;99.90
11961;DHT22;6040;49.358;11.140;2022-12-18T11:38:47;-2.70;99.90
11961;DHT22;6040;49.358;11.140;2022-12-18T11:41:23;-2.70;99.90
11961;DHT22;6040;49.358;11.140;2022-12-18T11:44:15;-2.90;99.90
11961;DHT22;6040;49.358;11.140;2022-12-18T11:46:48;-2.90;99.90
11961;DHT22;6040;49.358;11.140;2022-12-18T11:49:20;-2.90;99.90
11961;DHT22;6040;49.358;11.140;2022-12-18T11:51:51;-3.00;99.90
11961;DHT22;6040;49.358;11.140;2022-12-18T11:54:21;-3.00;99.90
11961;DHT22;6040;49.358;11.140;2022-12-18T11:56:53;-3.00;99.90
11961;DHT22;6040;49.358;11.140;2022-12-18T11:59:30;-2.90;99.90
11961;DHT22;6040;49.358;11.140;2022-12-18T12:02:14;-2.90;99.90
11961;DHT22;6040;49.358;11.140;2022-12-18T12:04:56;-2.90;99.90
11961;DHT22;6040;49.358;11.140;2022-12-18T12:07:37;-3.00;99.90
11961;DHT22;6040;49.358;11.140;2022-12-18T12:10:19;-2.90;99.90
11961;DHT22;6040;49.358;11.140;2022-12-18T12:13:06;-2.70;99.90
11961;DHT22;6040;49.358;11.140;2022-12-18T12:15:42;-2.60;99.90
11961;DHT22;6040;49.358;11.140;2022-12-18T12:18:22;-2.60;99.90
11961;DHT22;6040;49.358;11.140;2022-12-18T12:20:58;-2.50;99.90
11961;DHT22;6040;49.358;11.140;2022-12-18T12:23:36;-2.30;99.90
11961;DHT22;6040;49.358;11.140;2022-12-18T12:26:07;-2.20;99.90
11961;DHT22;6040;49.358;11.140;2022-12-18T12:28:51;-2.10;99.90
11961;DHT22;6040;49.358;11.140;2022-12-18T12:31:27;-2.10;99.90
11961;DHT22;6040;49.358;11.140;2022-12-18T12:34:01;-2.10;99.90
11961;DHT22;6040;49.358;11.140;2022-12-18T12:36:37;-2.30;99.90
11961;DHT22;6040;49.358;11.140;2022-12-18T12:39:11;-2.40;99.90
11961;DHT22;6040;49.358;11.140;2022-12-18T12:41:41;-2.30;99.90
11961;DHT22;6040;49.358;11.140;2022-12-18T12:44:30;-2.30;99.90
11961;DHT22;6040;49.358;11.140;2022-12-18T12:47:04;-2.10;99.90
11961;DHT22;6040;49.358;11.140;2022-12-18T12:49:33;-2.00;99.90
11961;DHT22;6040;49.358;11.140;2022-12-18T12:52:05;-2.00;99.90
11961;DHT22;6040;49.358;11.140;2022-12-18T12:54:33;-2.10;99.90
11961;DHT22;6040;49.358;11.140;2022-12-18T12:57:04;-1.90;99.90
11961;DHT22;6040;49.358;11.140;2022-12-18T12:59:41;-1.80;99.90
11961;DHT22;6040;49.358;11.140;2022-12-18T13:02:18;-2.00;99.90
11961;DHT22;6040;49.358;11.140;2022-12-18T13:04:49;-2.00;99.90
11961;DHT22;6040;49.358;11.140;2022-12-18T13:07:24;-2.10;99.90
11961;DHT22;6040;49.358;11.140;2022-12-18T13:10:13;-2.10;99.90
11961;DHT22;6040;49.358;11.140;2022-12-18T13:12:52;-2.10;99.90
11961;DHT22;6040;49.358;11.140;2022-12-18T13:15:30;-2.10;99.90
11961;DHT22;6040;49.358;11.140;2022-12-18T13:18:19;-2.20;99.90
11961;DHT22;6040;49.358;11.140;2022-12-18T13:20:47;-2.10;99.90
11961;DHT22;6040;49.358;11.140;2022-12-18T13:23:29;-2.20;99.90
11961;DHT22;6040;49.358;11.140;2022-12-18T13:25:58;-2.30;99.90
11961;DHT22;6040;49.358;11.140;2022-12-18T13:28:50;-2.20;99.90
11961;DHT22;6040;49.358;11.140;2022-12-18T13:31:58;-2.20;99.90
11961;DHT22;6040;49.358;11.140;2022-12-18T13:34:26;-2.20;99.90
11961;DHT22;6040;49.358;11.140;2022-12-18T13:36:56;-2.20;99.90
11961;DHT22;6040;49.358;11.140;2022-12-18T13:39:32;-2.40;99.90
11961;DHT22;6040;49.358;11.140;2022-12-18T13:45:42;-2.50;99.90
11961;DHT22;6040;49.358;11.140;2022-12-18T13:48:21;-2.60;99.90
11961;DHT22;6040;49.358;11.140;2022-12-18T13:50:58;-2.50;99.90
11961;DHT22;6040;49.358;11.140;2022-12-18T13:53:29;-2.50;99.90
11961;DHT22;6040;49.358;11.140;2022-12-18T13:55:56;-2.60;99.90
11961;DHT22;6040;49.358;11.140;2022-12-18T13:58:23;-2.60;99.90
11961;DHT22;6040;49.358;11.140;2022-12-18T14:00:50;-2.60;99.90
11961;DHT22;6040;49.358;11.140;2022-12-18T14:03:22;-2.70;99.90
11961;DHT22;6040;49.358;11.140;2022-12-18T14:05:58;-2.70;99.90
11961;DHT22;6040;49.358;11.140;2022-12-18T14:08:32;-2.80;99.90
11961;DHT22;6040;49.358;11.140;2022-12-18T14:11:01;-2.80;99.90
11961;DHT22;6040;49.358;11.140;2022-12-18T14:13:32;-2.90;99.90
11961;DHT22;6040;49.358;11.140;2022-12-18T14:16:01;-2.90;99.90
11961;DHT22;6040;49.358;11.140;2022-12-18T14:18:36;-2.90;99.90
11961;DHT22;6040;49.358;11.140;2022-12-18T14:21:05;-2.90;99.90
11961;DHT22;6040;49.358;11.140;2022-12-18T14:23:35;-3.00;99.90
11961;DHT22;6040;49.358;11.140;2022-12-18T14:26:19;-2.90;99.90
11961;DHT22;6040;49.358;11.140;2022-12-18T14:28:46;-2.90;99.90
11961;DHT22;6040;49.358;11.140;2022-12-18T14:31:18;-2.90;99.90
11961;DHT22;6040;49.358;11.140;2022-12-18T14:33:47;-3.00;99.90
11961;DHT22;6040;49.358;11.140;2022-12-18T14:36:17;-3.00;99.90
11961;DHT22;6040;49.358;11.140;2022-12-18T14:38:49;-3.10;99.90
11961;DHT22;6040;49.358;11.140;2022-12-18T14:41:18;-3.10;99.90
11961;DHT22;6040;49.358;11.140;2022-12-18T14:43:46;-3.10;99.90
11961;DHT22;6040;49.358;11.140;2022-12-18T14:46:32;-3.10;99.90
11961;DHT22;6040;49.358;11.140;2022-12-18T14:49:04;-3.20;99.90
11961;DHT22;6040;49.358;11.140;2022-12-18T14:51:33;-3.20;99.90
11961;DHT22;6040;49.358;11.140;2022-12-18T14:54:02;-3.20;99.90
11961;DHT22;6040;49.358;11.140;2022-12-18T14:56:31;-3.30;99.90
11961;DHT22;6040;49.358;11.140;2022-12-18T14:59:00;-3.30;99.90
11961;DHT22;6040;49.358;11.140;2022-12-18T15:01:29;-3.30;99.90
11961;DHT22;6040;49.358;11.140;2022-12-18T15:03:58;-3.30;99.90
11961;DHT22;6040;49.358;11.140;2022-12-18T15:06:32;-3.40;99.90
11961;DHT22;6040;49.358;11.140;2022-12-18T15:09:01;-3.40;99.90
11961;DHT22;6040;49.358;11.140;2022-12-18T15:11:43;-3.50;99.90
11961;DHT22;6040;49.358;11.140;2022-12-18T15:14:30;-3.50;99.90
11961;DHT22;6040;49.358;11.140;2022-12-18T15:16:58;-3.50;99.90
11961;DHT22;6040;49.358;11.140;2022-12-18T15:19:32;-3.60;99.90
11961;DHT22;6040;49.358;11.140;2022-12-18T15:22:01;-3.60;99.90
11961;DHT22;6040;49.358;11.140;2022-12-18T15:24:31;-3.60;99.90
11961;DHT22;6040;49.358;11.140;2022-12-18T15:26:59;-3.70;99.90
11961;DHT22;6040;49.358;11.140;2022-12-18T15:29:26;-3.70;99.90
11961;DHT22;6040;49.358;11.140;2022-12-18T15:32:02;-3.70;99.90
11961;DHT22;6040;49.358;11.140;2022-12-18T15:34:30;-4.10;99.90
11961;DHT22;6040;49.358;11.140;2022-12-18T15:36:57;-3.80;99.90
11961;DHT22;6040;49.358;11.140;2022-12-18T15:39:25;-3.80;99.90
11961;DHT22;6040;49.358;11.140;2022-12-18T15:41:52;-3.80;99.90
11961;DHT22;6040;49.358;11.140;2022-12-18T15:44:36;-3.80;99.90
11961;DHT22;6040;49.358;11.140;2022-12-18T15:47:09;-3.90;99.90
11961;DHT22;6040;49.358;11.140;2022-12-18T15:49:36;-3.90;99.90
11961;DHT22;6040;49.358;11.140;2022-12-18T15:52:03;-3.90;99.90
11961;DHT22;6040;49.358;11.140;2022-12-18T15:54:31;-3.90;99.90